sensor_id;sensor_type;location;lat;lon;timestamp;temperature;humidity
25332;DHT22;13284;52.748;13.452;2022-07-24T00:02:19;13.60;99.90
25332;DHT22;13284;52.748;13.452;2022-07-24T00:04:45;13.60;99.90
25332;DHT22;13284;52.748;13.452;2022-07-24T00:07:10;13.50;99.90
25332;DHT22;13284;52.748;13.452;2022-07-24T00:09:36;13.40;99.90
25332;DHT22;13284;52.748;13.452;2022-07-24T00:12:02;13.30;99.90
25332;DHT22;13284;52.748;13.452;2022-07-24T00:14:27;13.20;99.90
25332;DHT22;13284;52.748;13.452;2022-07-24T00:16:53;13.10;99.90
25332;DHT22;13284;52.748;13.452;2022-07-24T00:19:18;13.00;99.90
25332;DHT22;13284;52.748;13.452;2022-07-24T00:21:44;12.90;99.90
25332;DHT22;13284;52.748;13.452;2022-07-24T00:24:09;12.90;99.90
25332;DHT22;13284;52.748;13.452;2022-07-24T00:26:35;12.80;99.90
25332;DHT22;13284;52.748;13.452;2022-07-24T00:29:01;12.80;99.90
25332;DHT22;13284;52.748;13.452;2022-07-24T00:31:26;12.80;99.90
25332;DHT22;13284;52.748;13.452;2022-07-24T00:33:52;12.80;99.90
25332;DHT22;13284;52.748;13.452;2022-07-24T00:36:17;12.80;99.90
25332;DHT22;13284;52.748;13.452;2022-07-24T00:38:43;12.70;99.90
25332;DHT22;13284;52.748;13.452;2022-07-24T00:41:08;12.60;99.90
25332;DHT22;13284;52.748;13.452;2022-07-24T00:43:34;12.70;99.90
25332;DHT22;13284;52.748;13.452;2022-07-24T00:46:00;12.70;99.90
25332;DHT22;13284;52.748;13.452;2022-07-24T00:48:25;12.70;99.90
25332;DHT22;13284;52.748;13.452;2022-07-24T00:50:51;12.70;99.90
25332;DHT22;13284;52.748;13.452;2022-07-24T00:53:17;12.70;99.90
25332;DHT22;13284;52.748;13.452;2022-07-24T00:55:43;12.60;99.90
25332;DHT22;13284;52.748;13.452;2022-07-24T00:58:08;12.60;99.90
25332;DHT22;13284;52.748;13.452;2022-07-24T01:00:34;12.50;99.90
25332;DHT22;13284;52.748;13.452;2022-07-24T01:03:00;12.40;99.90
25332;DHT22;13284;52.748;13.452;2022-07-24T01:05:25;12.40;99.90
25332;DHT22;13284;52.748;13.452;2022-07-24T01:07:51;12.40;99.90
25332;DHT22;13284;52.748;13.452;2022-07-24T01:10:16;12.30;99.90
25332;DHT22;13284;52.748;13.452;2022-07-24T01:12:42;12.30;99.90
25332;DHT22;13284;52.748;13.452;2022-07-24T01:15:10;12.30;99.90
25332;DHT22;13284;52.748;13.452;2022-07-24T01:17:38;12.30;99.90
25332;DHT22;13284;52.748;13.452;2022-07-24T01:20:05;12.30;99.90
25332;DHT22;13284;52.748;13.452;2022-07-24T01:22:31;12.20;99.90
25332;DHT22;13284;52.748;13.452;2022-07-24T01:24:57;12.20;99.90
25332;DHT22;13284;52.748;13.452;2022-07-24T01:27:24;12.20;99.90
25332;DHT22;13284;52.748;13.452;2022-07-24T01:29:50;12.10;99.90
25332;DHT22;13284;52.748;13.452;2022-07-24T01:32:16;12.20;99.90
25332;DHT22;13284;52.748;13.452;2022-07-24T01:34:42;12.20;99.90
25332;DHT22;13284;52.748;13.452;2022-07-24T01:37:07;12.10;99.90
25332;DHT22;13284;52.748;13.452;2022-07-24T01:39:33;12.20;99.90
25332;DHT22;13284;52.748;13.452;2022-07-24T01:41:59;12.20;99.90
25332;DHT22;13284;52.748;13.452;2022-07-24T01:44:24;12.20;99.90
25332;DHT22;13284;52.748;13.452;2022-07-24T01:46:50;12.20;99.90
25332;DHT22;13284;52.748;13.452;2022-07-24T01:49:15;12.20;99.90
25332;DHT22;13284;52.748;13.452;2022-07-24T01:51:41;12.20;99.90
25332;DHT22;13284;52.748;13.452;2022-07-24T01:54:06;12.10;99.90
25332;DHT22;13284;52.748;13.452;2022-07-24T01:56:32;12.00;99.90
25332;DHT22;13284;52.748;13.452;2022-07-24T01:58:58;12.00;99.90
25332;DHT22;13284;52.748;13.452;2022-07-24T02:01:24;11.90;99.90
25332;DHT22;13284;52.748;13.452;2022-07-24T02:03:50;11.80;99.90
25332;DHT22;13284;52.748;13.452;2022-07-24T02:06:16;11.80;99.90
25332;DHT22;13284;52.748;13.452;2022-07-24T02:08:42;11.80;99.90
25332;DHT22;13284;52.748;13.452;2022-07-24T02:11:07;11.80;99.90
25332;DHT22;13284;52.748;13.452;2022-07-24T02:13:33;11.90;99.90
25332;DHT22;13284;52.748;13.452;2022-07-24T02:15:58;11.80;99.90
25332;DHT22;13284;52.748;13.452;2022-07-24T02:18:24;11.80;99.90
25332;DHT22;13284;52.748;13.452;2022-07-24T02:20:49;11.80;99.90
25332;DHT22;13284;52.748;13.452;2022-07-24T02:23:15;11.80;99.90
25332;DHT22;13284;52.748;13.452;2022-07-24T02:25:45;11.80;99.90
25332;DHT22;13284;52.748;13.452;2022-07-24T02:28:11;11.80;99.90
25332;DHT22;13284;52.748;13.452;2022-07-24T02:30:37;11.80;99.90
25332;DHT22;13284;52.748;13.452;2022-07-24T02:33:03;11.80;99.90
25332;DHT22;13284;52.748;13.452;2022-07-24T02:35:28;11.80;99.90
25332;DHT22;13284;52.748;13.452;2022-07-24T02:37:53;11.80;99.90
25332;DHT22;13284;52.748;13.452;2022-07-24T02:40:19;11.80;99.90
25332;DHT22;13284;52.748;13.452;2022-07-24T02:42:44;11.80;99.90
25332;DHT22;13284;52.748;13.452;2022-07-24T02:45:10;11.70;99.90
25332;DHT22;13284;52.748;13.452;2022-07-24T02:47:52;11.70;99.90
25332;DHT22;13284;52.748;13.452;2022-07-24T02:50:18;11.70;99.90
25332;DHT22;13284;52.748;13.452;2022-07-24T02:52:44;11.70;99.90
25332;DHT22;13284;52.748;13.452;2022-07-24T02:55:10;11.70;99.90
25332;DHT22;13284;52.748;13.452;2022-07-24T02:57:36;11.70;99.90
25332;DHT22;13284;52.748;13.452;2022-07-24T03:00:08;11.70;99.90
25332;DHT22;13284;52.748;13.452;2022-07-24T03:02:34;11.70;99.90
25332;DHT22;13284;52.748;13.452;2022-07-24T03:05:00;11.60;99.90
25332;DHT22;13284;52.748;13.452;2022-07-24T03:07:27;11.50;99.90
25332;DHT22;13284;52.748;13.452;2022-07-24T03:09:52;11.40;99.90
25332;DHT22;13284;52.748;13.452;2022-07-24T03:12:18;11.30;99.90
25332;DHT22;13284;52.748;13.452;2022-07-24T03:14:43;11.40;99.90
25332;DHT22;13284;52.748;13.452;2022-07-24T03:17:09;11.30;99.90
25332;DHT22;13284;52.748;13.452;2022-07-24T03:19:34;11.40;99.90
25332;DHT22;13284;52.748;13.452;2022-07-24T03:22:00;11.40;99.90
25332;DHT22;13284;52.748;13.452;2022-07-24T03:24:25;11.30;99.90
25332;DHT22;13284;52.748;13.452;2022-07-24T03:26:51;11.40;99.90
25332;DHT22;13284;52.748;13.452;2022-07-24T03:29:16;11.40;99.90
25332;DHT22;13284;52.748;13.452;2022-07-24T03:31:42;11.40;99.90
25332;DHT22;13284;52.748;13.452;2022-07-24T03:34:08;11.40;99.90
25332;DHT22;13284;52.748;13.452;2022-07-24T03:36:33;11.40;99.90
25332;DHT22;13284;52.748;13.452;2022-07-24T03:38:59;11.40;99.90
25332;DHT22;13284;52.748;13.452;2022-07-24T03:41:24;11.40;99.90
25332;DHT22;13284;52.748;13.452;2022-07-24T03:43:50;11.40;99.90
25332;DHT22;13284;52.748;13.452;2022-07-24T03:46:15;11.40;99.90
25332;DHT22;13284;52.748;13.452;2022-07-24T03:48:41;11.40;99.90
25332;DHT22;13284;52.748;13.452;2022-07-24T03:51:06;11.30;99.90
25332;DHT22;13284;52.748;13.452;2022-07-24T03:53:32;11.30;99.90
25332;DHT22;13284;52.748;13.452;2022-07-24T03:55:57;11.20;99.90
25332;DHT22;13284;52.748;13.452;2022-07-24T03:58:23;11.30;99.90
25332;DHT22;13284;52.748;13.452;2022-07-24T04:00:48;11.30;99.90
25332;DHT22;13284;52.748;13.452;2022-07-24T04:03:14;11.30;99.90
25332;DHT22;13284;52.748;13.452;2022-07-24T04:05:39;11.40;99.90
25332;DHT22;13284;52.748;13.452;2022-07-24T04:08:05;11.40;99.90
25332;DHT22;13284;52.748;13.452;2022-07-24T04:10:30;11.50;99.90
25332;DHT22;13284;52.748;13.452;2022-07-24T04:12:56;11.50;99.90
25332;DHT22;13284;52.748;13.452;2022-07-24T04:15:21;11.50;99.90
25332;DHT22;13284;52.748;13.452;2022-07-24T04:17:47;11.60;99.90
25332;DHT22;13284;52.748;13.452;2022-07-24T04:20:13;11.60;99.90
25332;DHT22;13284;52.748;13.452;2022-07-24T04:22:38;11.70;99.90
25332;DHT22;13284;52.748;13.452;2022-07-24T04:25:04;11.70;99.90
25332;DHT22;13284;52.748;13.452;2022-07-24T04:27:30;11.80;99.90
25332;DHT22;13284;52.748;13.452;2022-07-24T04:29:55;11.90;99.90
25332;DHT22;13284;52.748;13.452;2022-07-24T04:32:21;12.00;99.90
25332;DHT22;13284;52.748;13.452;2022-07-24T04:34:46;12.20;99.90
25332;DHT22;13284;52.748;13.452;2022-07-24T04:37:11;12.40;99.90
25332;DHT22;13284;52.748;13.452;2022-07-24T04:39:37;12.50;99.90
25332;DHT22;13284;52.748;13.452;2022-07-24T04:42:02;12.60;99.90
25332;DHT22;13284;52.748;13.452;2022-07-24T04:44:28;12.70;99.90
25332;DHT22;13284;52.748;13.452;2022-07-24T04:46:54;12.90;99.90
25332;DHT22;13284;52.748;13.452;2022-07-24T04:49:19;13.10;99.90
25332;DHT22;13284;52.748;13.452;2022-07-24T04:51:44;13.20;99.90
25332;DHT22;13284;52.748;13.452;2022-07-24T04:54:10;13.30;99.90
25332;DHT22;13284;52.748;13.452;2022-07-24T04:56:35;13.50;99.90
25332;DHT22;13284;52.748;13.452;2022-07-24T04:59:01;13.60;99.90
25332;DHT22;13284;52.748;13.452;2022-07-24T05:01:29;13.80;99.90
25332;DHT22;13284;52.748;13.452;2022-07-24T05:03:55;13.90;99.90
25332;DHT22;13284;52.748;13.452;2022-07-24T05:06:22;14.00;99.90
25332;DHT22;13284;52.748;13.452;2022-07-24T05:08:48;14.10;99.90
25332;DHT22;13284;52.748;13.452;2022-07-24T05:11:14;14.30;99.90
25332;DHT22;13284;52.748;13.452;2022-07-24T05:13:39;14.30;99.90
25332;DHT22;13284;52.748;13.452;2022-07-24T05:16:05;14.50;99.90
25332;DHT22;13284;52.748;13.452;2022-07-24T05:18:30;14.60;99.90
25332;DHT22;13284;52.748;13.452;2022-07-24T05:20:56;14.80;99.90
25332;DHT22;13284;52.748;13.452;2022-07-24T05:23:21;14.90;99.90
25332;DHT22;13284;52.748;13.452;2022-07-24T05:25:47;15.10;99.90
25332;DHT22;13284;52.748;13.452;2022-07-24T05:28:12;15.40;99.90
25332;DHT22;13284;52.748;13.452;2022-07-24T05:30:38;15.50;99.90
25332;DHT22;13284;52.748;13.452;2022-07-24T05:33:03;15.70;99.90
25332;DHT22;13284;52.748;13.452;2022-07-24T05:35:29;15.70;99.90
25332;DHT22;13284;52.748;13.452;2022-07-24T05:37:55;15.80;99.90
25332;DHT22;13284;52.748;13.452;2022-07-24T05:40:20;15.90;99.90
25332;DHT22;13284;52.748;13.452;2022-07-24T05:42:46;16.30;99.90
25332;DHT22;13284;52.748;13.452;2022-07-24T05:45:12;16.60;99.90
25332;DHT22;13284;52.748;13.452;2022-07-24T05:47:38;16.80;99.90
25332;DHT22;13284;52.748;13.452;2022-07-24T05:50:12;16.80;99.90
25332;DHT22;13284;52.748;13.452;2022-07-24T05:52:38;16.80;99.90
25332;DHT22;13284;52.748;13.452;2022-07-24T05:55:05;16.80;99.90
25332;DHT22;13284;52.748;13.452;2022-07-24T05:57:30;17.10;99.90
25332;DHT22;13284;52.748;13.452;2022-07-24T05:59:57;17.10;99.90
25332;DHT22;13284;52.748;13.452;2022-07-24T06:02:23;17.10;99.90
25332;DHT22;13284;52.748;13.452;2022-07-24T06:04:48;17.30;99.90
25332;DHT22;13284;52.748;13.452;2022-07-24T06:07:14;17.70;99.90
25332;DHT22;13284;52.748;13.452;2022-07-24T06:09:39;17.60;99.90
25332;DHT22;13284;52.748;13.452;2022-07-24T06:12:05;17.50;99.90
25332;DHT22;13284;52.748;13.452;2022-07-24T06:14:32;17.70;99.90
25332;DHT22;13284;52.748;13.452;2022-07-24T06:16:58;17.60;99.90
25332;DHT22;13284;52.748;13.452;2022-07-24T06:19:25;17.90;99.90
25332;DHT22;13284;52.748;13.452;2022-07-24T06:21:50;17.90;99.90
25332;DHT22;13284;52.748;13.452;2022-07-24T06:24:16;18.30;99.90
25332;DHT22;13284;52.748;13.452;2022-07-24T06:26:42;18.30;99.90
25332;DHT22;13284;52.748;13.452;2022-07-24T06:29:07;18.10;99.90
25332;DHT22;13284;52.748;13.452;2022-07-24T06:31:33;18.20;99.90
25332;DHT22;13284;52.748;13.452;2022-07-24T06:33:58;17.90;99.90
25332;DHT22;13284;52.748;13.452;2022-07-24T06:36:24;17.80;99.90
25332;DHT22;13284;52.748;13.452;2022-07-24T06:38:49;17.60;99.90
25332;DHT22;13284;52.748;13.452;2022-07-24T06:41:15;17.70;99.90
25332;DHT22;13284;52.748;13.452;2022-07-24T06:43:40;17.50;99.90
25332;DHT22;13284;52.748;13.452;2022-07-24T06:46:06;17.40;99.90
25332;DHT22;13284;52.748;13.452;2022-07-24T06:48:32;17.60;99.90
25332;DHT22;13284;52.748;13.452;2022-07-24T06:50:58;17.70;99.90
25332;DHT22;13284;52.748;13.452;2022-07-24T06:53:23;17.70;99.90
25332;DHT22;13284;52.748;13.452;2022-07-24T06:55:49;17.70;99.90
25332;DHT22;13284;52.748;13.452;2022-07-24T06:58:19;17.70;99.90
25332;DHT22;13284;52.748;13.452;2022-07-24T07:00:45;17.60;99.90
25332;DHT22;13284;52.748;13.452;2022-07-24T07:03:11;17.60;99.90
25332;DHT22;13284;52.748;13.452;2022-07-24T07:05:36;17.70;99.90
25332;DHT22;13284;52.748;13.452;2022-07-24T07:08:02;17.80;99.90
25332;DHT22;13284;52.748;13.452;2022-07-24T07:10:27;17.80;99.90
25332;DHT22;13284;52.748;13.452;2022-07-24T07:12:53;17.90;99.90
25332;DHT22;13284;52.748;13.452;2022-07-24T07:15:18;18.00;99.90
25332;DHT22;13284;52.748;13.452;2022-07-24T07:17:44;18.10;99.90
25332;DHT22;13284;52.748;13.452;2022-07-24T07:20:11;18.20;99.90
25332;DHT22;13284;52.748;13.452;2022-07-24T07:22:37;18.10;99.90
25332;DHT22;13284;52.748;13.452;2022-07-24T07:25:03;18.40;99.90
25332;DHT22;13284;52.748;13.452;2022-07-24T07:27:29;18.40;99.90
25332;DHT22;13284;52.748;13.452;2022-07-24T07:29:54;18.60;99.90
25332;DHT22;13284;52.748;13.452;2022-07-24T07:32:20;18.70;99.90
25332;DHT22;13284;52.748;13.452;2022-07-24T07:34:45;18.80;99.90
25332;DHT22;13284;52.748;13.452;2022-07-24T07:37:10;18.70;99.90
25332;DHT22;13284;52.748;13.452;2022-07-24T07:39:36;18.80;99.90
25332;DHT22;13284;52.748;13.452;2022-07-24T07:42:01;18.80;99.90
25332;DHT22;13284;52.748;13.452;2022-07-24T07:44:27;19.10;99.90
25332;DHT22;13284;52.748;13.452;2022-07-24T07:46:52;19.00;99.90
25332;DHT22;13284;52.748;13.452;2022-07-24T07:49:18;19.00;99.90
25332;DHT22;13284;52.748;13.452;2022-07-24T07:51:44;19.10;99.90
25332;DHT22;13284;52.748;13.452;2022-07-24T07:54:13;19.30;99.90
25332;DHT22;13284;52.748;13.452;2022-07-24T07:56:39;19.50;99.90
25332;DHT22;13284;52.748;13.452;2022-07-24T07:59:04;19.60;99.90
25332;DHT22;13284;52.748;13.452;2022-07-24T08:01:30;19.60;99.90
25332;DHT22;13284;52.748;13.452;2022-07-24T08:03:55;19.90;99.90
25332;DHT22;13284;52.748;13.452;2022-07-24T08:06:21;19.90;99.90
25332;DHT22;13284;52.748;13.452;2022-07-24T08:08:46;20.10;99.90
25332;DHT22;13284;52.748;13.452;2022-07-24T08:11:12;20.50;99.90
25332;DHT22;13284;52.748;13.452;2022-07-24T08:13:38;20.90;99.90
25332;DHT22;13284;52.748;13.452;2022-07-24T08:16:03;21.70;99.90
25332;DHT22;13284;52.748;13.452;2022-07-24T08:18:29;22.40;99.90
25332;DHT22;13284;52.748;13.452;2022-07-24T08:20:54;22.40;99.90
25332;DHT22;13284;52.748;13.452;2022-07-24T08:23:22;22.20;99.90
25332;DHT22;13284;52.748;13.452;2022-07-24T08:25:48;22.60;99.90
25332;DHT22;13284;52.748;13.452;2022-07-24T08:28:14;23.00;99.90
25332;DHT22;13284;52.748;13.452;2022-07-24T08:30:39;23.90;99.90
25332;DHT22;13284;52.748;13.452;2022-07-24T08:33:05;24.30;99.90
25332;DHT22;13284;52.748;13.452;2022-07-24T08:35:30;24.10;99.90
25332;DHT22;13284;52.748;13.452;2022-07-24T08:37:56;24.10;99.90
25332;DHT22;13284;52.748;13.452;2022-07-24T08:40:22;23.90;99.90
25332;DHT22;13284;52.748;13.452;2022-07-24T08:42:47;24.30;99.90
25332;DHT22;13284;52.748;13.452;2022-07-24T08:45:13;24.10;99.90
25332;DHT22;13284;52.748;13.452;2022-07-24T08:47:40;24.10;99.90
25332;DHT22;13284;52.748;13.452;2022-07-24T08:50:07;24.60;99.90
25332;DHT22;13284;52.748;13.452;2022-07-24T08:52:33;25.00;99.90
25332;DHT22;13284;52.748;13.452;2022-07-24T08:55:01;24.50;99.90
25332;DHT22;13284;52.748;13.452;2022-07-24T08:57:27;24.50;99.90
25332;DHT22;13284;52.748;13.452;2022-07-24T08:59:52;24.60;99.90
25332;DHT22;13284;52.748;13.452;2022-07-24T09:02:18;24.60;99.90
25332;DHT22;13284;52.748;13.452;2022-07-24T09:04:45;25.20;99.90
25332;DHT22;13284;52.748;13.452;2022-07-24T09:07:16;25.70;99.90
25332;DHT22;13284;52.748;13.452;2022-07-24T09:09:43;25.70;99.90
25332;DHT22;13284;52.748;13.452;2022-07-24T09:12:14;26.40;99.10
25332;DHT22;13284;52.748;13.452;2022-07-24T09:14:47;25.90;98.20
25332;DHT22;13284;52.748;13.452;2022-07-24T09:17:15;25.40;99.20
25332;DHT22;13284;52.748;13.452;2022-07-24T09:19:59;25.60;99.20
25332;DHT22;13284;52.748;13.452;2022-07-24T09:25:11;26.10;98.20
25332;DHT22;13284;52.748;13.452;2022-07-24T09:27:49;26.40;96.50
25332;DHT22;13284;52.748;13.452;2022-07-24T09:30:30;26.10;96.90
25332;DHT22;13284;52.748;13.452;2022-07-24T09:35:40;27.50;95.20
25332;DHT22;13284;52.748;13.452;2022-07-24T09:38:08;27.20;95.90
25332;DHT22;13284;52.748;13.452;2022-07-24T09:40:43;27.60;95.30
25332;DHT22;13284;52.748;13.452;2022-07-24T09:43:14;27.40;94.40
25332;DHT22;13284;52.748;13.452;2022-07-24T09:48:24;28.00;93.70
25332;DHT22;13284;52.748;13.452;2022-07-24T09:50:55;28.50;93.30
25332;DHT22;13284;52.748;13.452;2022-07-24T09:53:24;28.80;93.60
25332;DHT22;13284;52.748;13.452;2022-07-24T09:56:01;28.20;92.20
25332;DHT22;13284;52.748;13.452;2022-07-24T09:58:28;27.30;91.70
25332;DHT22;13284;52.748;13.452;2022-07-24T10:00:55;27.60;91.70
25332;DHT22;13284;52.748;13.452;2022-07-24T10:03:24;28.40;92.20
25332;DHT22;13284;52.748;13.452;2022-07-24T10:05:54;28.40;92.10
25332;DHT22;13284;52.748;13.452;2022-07-24T10:08:21;28.10;90.60
25332;DHT22;13284;52.748;13.452;2022-07-24T10:10:49;28.50;91.40
25332;DHT22;13284;52.748;13.452;2022-07-24T10:13:15;27.90;87.60
25332;DHT22;13284;52.748;13.452;2022-07-24T10:15:53;27.90;89.30
25332;DHT22;13284;52.748;13.452;2022-07-24T10:18:30;27.30;90.60
25332;DHT22;13284;52.748;13.452;2022-07-24T10:21:08;27.70;90.70
25332;DHT22;13284;52.748;13.452;2022-07-24T10:26:37;29.10;90.00
25332;DHT22;13284;52.748;13.452;2022-07-24T10:29:14;29.10;88.40
25332;DHT22;13284;52.748;13.452;2022-07-24T10:31:42;29.10;87.50
25332;DHT22;13284;52.748;13.452;2022-07-24T10:39:25;28.30;89.10
25332;DHT22;13284;52.748;13.452;2022-07-24T10:42:05;28.70;87.00
25332;DHT22;13284;52.748;13.452;2022-07-24T10:44:31;29.20;87.20
25332;DHT22;13284;52.748;13.452;2022-07-24T10:47:10;29.20;86.10
25332;DHT22;13284;52.748;13.452;2022-07-24T10:49:48;29.30;85.20
25332;DHT22;13284;52.748;13.452;2022-07-24T10:52:30;29.60;85.50
25332;DHT22;13284;52.748;13.452;2022-07-24T10:58:00;30.00;82.90
25332;DHT22;13284;52.748;13.452;2022-07-24T11:00:37;29.90;83.00
25332;DHT22;13284;52.748;13.452;2022-07-24T11:03:04;30.20;83.90
25332;DHT22;13284;52.748;13.452;2022-07-24T11:05:35;29.90;82.20
25332;DHT22;13284;52.748;13.452;2022-07-24T11:08:25;29.70;81.90
25332;DHT22;13284;52.748;13.452;2022-07-24T11:10:58;30.20;82.80
25332;DHT22;13284;52.748;13.452;2022-07-24T11:21:38;30.50;81.80
25332;DHT22;13284;52.748;13.452;2022-07-24T11:26:46;31.60;79.20
25332;DHT22;13284;52.748;13.452;2022-07-24T11:29:17;31.00;77.70
25332;DHT22;13284;52.748;13.452;2022-07-24T11:31:46;31.00;78.20
25332;DHT22;13284;52.748;13.452;2022-07-24T11:34:13;30.60;78.60
25332;DHT22;13284;52.748;13.452;2022-07-24T11:36:43;30.50;78.30
25332;DHT22;13284;52.748;13.452;2022-07-24T11:39:09;31.30;78.80
25332;DHT22;13284;52.748;13.452;2022-07-24T11:41:50;31.30;79.70
25332;DHT22;13284;52.748;13.452;2022-07-24T11:44:33;31.00;78.90
25332;DHT22;13284;52.748;13.452;2022-07-24T11:47:06;31.20;77.60
25332;DHT22;13284;52.748;13.452;2022-07-24T11:49:43;30.90;77.40
25332;DHT22;13284;52.748;13.452;2022-07-24T11:52:24;31.20;76.70
25332;DHT22;13284;52.748;13.452;2022-07-24T11:54:53;31.80;76.30
25332;DHT22;13284;52.748;13.452;2022-07-24T11:57:29;32.10;77.10
25332;DHT22;13284;52.748;13.452;2022-07-24T11:59:55;33.20;76.90
25332;DHT22;13284;52.748;13.452;2022-07-24T12:02:22;33.50;74.60
25332;DHT22;13284;52.748;13.452;2022-07-24T12:04:49;32.60;74.30
25332;DHT22;13284;52.748;13.452;2022-07-24T12:07:20;31.80;75.70
25332;DHT22;13284;52.748;13.452;2022-07-24T12:09:50;31.90;76.90
25332;DHT22;13284;52.748;13.452;2022-07-24T12:12:20;32.50;75.90
25332;DHT22;13284;52.748;13.452;2022-07-24T12:14:47;32.80;74.10
25332;DHT22;13284;52.748;13.452;2022-07-24T12:17:13;32.20;74.00
25332;DHT22;13284;52.748;13.452;2022-07-24T12:19:38;31.90;73.40
25332;DHT22;13284;52.748;13.452;2022-07-24T12:22:04;31.90;73.40
25332;DHT22;13284;52.748;13.452;2022-07-24T12:24:31;32.60;73.20
25332;DHT22;13284;52.748;13.452;2022-07-24T12:26:58;32.50;73.40
25332;DHT22;13284;52.748;13.452;2022-07-24T12:29:25;32.30;73.60
25332;DHT22;13284;52.748;13.452;2022-07-24T12:32:14;32.80;73.10
25332;DHT22;13284;52.748;13.452;2022-07-24T12:34:45;32.90;72.40
25332;DHT22;13284;52.748;13.452;2022-07-24T12:37:20;32.90;71.60
25332;DHT22;13284;52.748;13.452;2022-07-24T12:39:51;32.70;73.40
25332;DHT22;13284;52.748;13.452;2022-07-24T12:42:17;32.90;72.70
25332;DHT22;13284;52.748;13.452;2022-07-24T12:44:44;32.80;72.00
25332;DHT22;13284;52.748;13.452;2022-07-24T12:47:13;31.80;70.80
25332;DHT22;13284;52.748;13.452;2022-07-24T12:49:41;31.60;71.20
25332;DHT22;13284;52.748;13.452;2022-07-24T12:52:22;32.60;71.70
25332;DHT22;13284;52.748;13.452;2022-07-24T12:54:49;32.40;71.40
25332;DHT22;13284;52.748;13.452;2022-07-24T12:57:15;32.60;73.20
25332;DHT22;13284;52.748;13.452;2022-07-24T12:59:46;33.20;71.10
25332;DHT22;13284;52.748;13.452;2022-07-24T13:02:22;32.90;70.20
25332;DHT22;13284;52.748;13.452;2022-07-24T13:04:52;32.50;72.20
25332;DHT22;13284;52.748;13.452;2022-07-24T13:07:23;32.60;70.70
25332;DHT22;13284;52.748;13.452;2022-07-24T13:09:49;32.10;70.90
25332;DHT22;13284;52.748;13.452;2022-07-24T13:12:16;31.70;70.20
25332;DHT22;13284;52.748;13.452;2022-07-24T13:14:42;31.90;72.50
25332;DHT22;13284;52.748;13.452;2022-07-24T13:17:13;31.80;71.30
25332;DHT22;13284;52.748;13.452;2022-07-24T13:19:40;32.20;70.50
25332;DHT22;13284;52.748;13.452;2022-07-24T13:22:06;31.90;71.30
25332;DHT22;13284;52.748;13.452;2022-07-24T13:24:32;31.20;72.60
25332;DHT22;13284;52.748;13.452;2022-07-24T13:27:03;31.30;73.30
25332;DHT22;13284;52.748;13.452;2022-07-24T13:29:29;31.40;72.30
25332;DHT22;13284;52.748;13.452;2022-07-24T13:31:55;31.70;73.20
25332;DHT22;13284;52.748;13.452;2022-07-24T13:34:21;32.40;71.60
25332;DHT22;13284;52.748;13.452;2022-07-24T13:36:46;31.90;71.70
25332;DHT22;13284;52.748;13.452;2022-07-24T13:39:13;32.30;73.40
25332;DHT22;13284;52.748;13.452;2022-07-24T13:41:38;32.70;73.20
25332;DHT22;13284;52.748;13.452;2022-07-24T13:44:05;31.90;71.00
25332;DHT22;13284;52.748;13.452;2022-07-24T13:46:31;31.00;72.60
25332;DHT22;13284;52.748;13.452;2022-07-24T13:49:03;31.30;73.60
25332;DHT22;13284;52.748;13.452;2022-07-24T13:51:29;31.20;73.30
25332;DHT22;13284;52.748;13.452;2022-07-24T13:53:55;31.10;72.10
25332;DHT22;13284;52.748;13.452;2022-07-24T13:56:21;31.20;73.30
25332;DHT22;13284;52.748;13.452;2022-07-24T13:58:49;31.40;73.20
25332;DHT22;13284;52.748;13.452;2022-07-24T14:01:15;30.90;73.70
25332;DHT22;13284;52.748;13.452;2022-07-24T14:03:43;30.70;75.00
25332;DHT22;13284;52.748;13.452;2022-07-24T14:06:09;30.60;74.90
25332;DHT22;13284;52.748;13.452;2022-07-24T14:08:36;30.70;75.30
25332;DHT22;13284;52.748;13.452;2022-07-24T14:11:02;30.60;74.40
25332;DHT22;13284;52.748;13.452;2022-07-24T14:13:27;30.70;74.60
25332;DHT22;13284;52.748;13.452;2022-07-24T14:15:53;30.40;72.20
25332;DHT22;13284;52.748;13.452;2022-07-24T14:18:19;30.00;71.80
25332;DHT22;13284;52.748;13.452;2022-07-24T14:20:45;29.90;73.10
25332;DHT22;13284;52.748;13.452;2022-07-24T14:23:10;30.00;73.90
25332;DHT22;13284;52.748;13.452;2022-07-24T14:25:36;29.80;73.90
25332;DHT22;13284;52.748;13.452;2022-07-24T14:28:01;29.50;74.50
25332;DHT22;13284;52.748;13.452;2022-07-24T14:30:27;29.60;75.30
25332;DHT22;13284;52.748;13.452;2022-07-24T14:32:52;29.70;74.10
25332;DHT22;13284;52.748;13.452;2022-07-24T14:35:18;29.80;74.50
25332;DHT22;13284;52.748;13.452;2022-07-24T14:37:43;29.70;75.50
25332;DHT22;13284;52.748;13.452;2022-07-24T14:40:09;29.80;75.40
25332;DHT22;13284;52.748;13.452;2022-07-24T14:42:35;30.00;75.30
25332;DHT22;13284;52.748;13.452;2022-07-24T14:45:01;30.00;73.80
25332;DHT22;13284;52.748;13.452;2022-07-24T14:47:27;29.80;74.90
25332;DHT22;13284;52.748;13.452;2022-07-24T14:49:53;29.80;75.00
25332;DHT22;13284;52.748;13.452;2022-07-24T14:52:20;29.70;74.90
25332;DHT22;13284;52.748;13.452;2022-07-24T14:54:46;29.70;75.90
25332;DHT22;13284;52.748;13.452;2022-07-24T14:57:12;29.50;75.30
25332;DHT22;13284;52.748;13.452;2022-07-24T14:59:38;29.40;74.80
25332;DHT22;13284;52.748;13.452;2022-07-24T15:02:04;29.40;74.60
25332;DHT22;13284;52.748;13.452;2022-07-24T15:04:30;29.50;75.70
25332;DHT22;13284;52.748;13.452;2022-07-24T15:06:55;29.50;74.90
25332;DHT22;13284;52.748;13.452;2022-07-24T15:09:21;29.50;74.80
25332;DHT22;13284;52.748;13.452;2022-07-24T15:11:46;29.30;75.00
25332;DHT22;13284;52.748;13.452;2022-07-24T15:14:12;29.40;76.10
25332;DHT22;13284;52.748;13.452;2022-07-24T15:16:37;29.50;76.10
25332;DHT22;13284;52.748;13.452;2022-07-24T15:19:03;29.20;74.60
25332;DHT22;13284;52.748;13.452;2022-07-24T15:21:29;29.30;76.20
25332;DHT22;13284;52.748;13.452;2022-07-24T15:23:54;29.40;76.20
25332;DHT22;13284;52.748;13.452;2022-07-24T15:26:20;29.40;77.70
25332;DHT22;13284;52.748;13.452;2022-07-24T15:28:45;29.50;77.10
25332;DHT22;13284;52.748;13.452;2022-07-24T15:31:11;29.60;76.70
25332;DHT22;13284;52.748;13.452;2022-07-24T15:33:37;29.60;76.70
25332;DHT22;13284;52.748;13.452;2022-07-24T15:36:03;29.60;76.90
25332;DHT22;13284;52.748;13.452;2022-07-24T15:38:28;29.40;76.80
25332;DHT22;13284;52.748;13.452;2022-07-24T15:40:54;29.40;76.50
25332;DHT22;13284;52.748;13.452;2022-07-24T15:43:19;29.40;76.70
25332;DHT22;13284;52.748;13.452;2022-07-24T15:45:45;29.30;76.10